Terminal Aerodrome Forecast
Issued by NWS Pittsburgh, PA

Home | Current Version | Previous Version | Text Only | Print | Product List | Glossary On
Versions: 1 2 3 4 5 6 7 8 9 10 11 12 13 14 15 16 17 18 19 20 21 22 23 24 25 26 27 28 29 30
000
FTUS41 KPBZ 222000 AAA
TAFPIT
TAF AMD
KPIT 222055Z 2221/2324 33008KT P6SM OVC020
     FM230900 31007KT P6SM BKN025
     FM231800 32007KT P6SM SCT035=

USA.gov is the U.S. government's official web portal to all federal, state and local government web resources and services.